Time;durP1;ratioP1;P1;durP2;ratioP2;P2;SDS_P1;SDS_P2;PMS_P1;PMS_P2;Temp;Humidity;BMP_temperature;BMP_pressure;BME280_temperature;BME280_humidity;BME280_pressure;Samples;Min_cycle;Max_cycle;Signal;HPM_P1;HPM_P2
2021/11/25 00:01:09;;;;;;;;;;;;;;;16.95;68.13;101825.81;5064786;28;1519;-66
2021/11/25 00:03:35;;;;;;;;;;;;;;;16.97;68.08;101816.75;5066080;28;1554;-71
2021/11/25 00:06:02;;;;;;;;;;;;;;;16.95;68.19;101813.31;5059267;28;1902;-71
2021/11/25 00:08:28;;;;;;;;;;;;;;;16.97;67.87;101821.22;5063602;28;1919;-66
2021/11/25 00:10:55;;;;;;;;;;;;;;;16.94;67.97;101822.28;5067360;28;1349;-71
2021/11/25 00:13:22;;;;;;;;;;;;;;;16.95;68.32;101823.13;5072711;28;1409;-66
2021/11/25 00:15:50;;;;;;;;;;;;;;;16.94;68.16;101824.94;5071508;28;1385;-71
2021/11/25 00:18:18;;;;;;;;;;;;;;;16.93;67.32;101825.03;5065094;28;1322;-65
2021/11/25 00:20:45;;;;;;;;;;;;;;;16.91;68.22;101817.16;5074268;28;1580;-70
2021/11/25 00:23:11;;;;;;;;;;;;;;;16.92;68.25;101818.00;5063843;28;1727;-66
2021/11/25 00:25:38;;;;;;;;;;;;;;;16.90;68.09;101813.59;5066980;28;1979;-66
2021/11/25 00:28:05;;;;;;;;;;;;;;;16.90;67.77;101812.75;5069142;28;1505;-71
2021/11/25 00:30:32;;;;;;;;;;;;;;;16.90;68.29;101826.94;5065862;28;1664;-70
2021/11/25 00:33:00;;;;;;;;;;;;;;;16.91;68.03;101819.81;5064857;28;1285;-66
2021/11/25 00:35:27;;;;;;;;;;;;;;;16.88;68.00;101814.66;5064538;28;1233;-69
2021/11/25 00:37:53;;;;;;;;;;;;;;;16.89;67.99;101819.03;5065433;28;1601;-66
2021/11/25 00:40:20;;;;;;;;;;;;;;;16.86;67.87;101809.41;5066888;28;1394;-66
2021/11/25 00:42:47;;;;;;;;;;;;;;;16.87;68.10;101815.59;5067936;28;1640;-70
2021/11/25 00:45:14;;;;;;;;;;;;;;;16.85;68.42;101796.13;5070281;28;1981;-71
2021/11/25 00:47:41;;;;;;;;;;;;;;;16.85;67.65;101802.34;5065606;28;1419;-66
2021/11/25 00:50:10;;;;;;;;;;;;;;;16.83;67.92;101792.69;5065418;28;1696;-70
2021/11/25 00:52:37;;;;;;;;;;;;;;;16.83;67.97;101798.03;5065680;28;1428;-67
2021/11/25 00:55:04;;;;;;;;;;;;;;;16.82;68.25;101799.00;5058716;28;1785;-66
2021/11/25 00:57:32;;;;;;;;;;;;;;;16.83;68.06;101792.69;5067514;28;1434;-71
2021/11/25 00:59:59;;;;;;;;;;;;;;;16.84;68.18;101795.28;5072008;28;1263;-71
2021/11/25 01:02:26;;;;;;;;;;;;;;;16.82;67.97;101791.84;5068435;28;1497;-71
2021/11/25 01:04:52;;;;;;;;;;;;;;;16.81;68.39;101798.16;5071464;28;1910;-71
2021/11/25 01:07:20;;;;;;;;;;;;;;;16.80;68.17;101791.03;5070985;28;1431;-71
2021/11/25 01:09:47;;;;;;;;;;;;;;;16.82;67.93;101791.00;5064618;28;1411;-72
2021/11/25 01:12:15;;;;;;;;;;;;;;;16.79;67.83;101789.34;5066201;28;1415;-66
2021/11/25 01:14:41;;;;;;;;;;;;;;;16.79;68.19;101799.16;5070723;28;1563;-66
2021/11/25 01:17:08;;;;;;;;;;;;;;;16.75;68.52;101794.97;5063178;28;1342;-70
2021/11/25 01:19:35;;;;;;;;;;;;;;;16.76;68.35;101786.00;5065078;28;1351;-69
2021/11/25 01:22:01;;;;;;;;;;;;;;;16.75;68.38;101800.31;5073118;28;1408;-66
2021/11/25 01:24:29;;;;;;;;;;;;;;;16.75;68.57;101797.63;5064429;28;1588;-71
2021/11/25 01:26:56;;;;;;;;;;;;;;;16.74;67.75;101783.41;5069889;28;2017;-71
2021/11/25 01:29:22;;;;;;;;;;;;;;;16.77;67.96;101793.94;5069584;28;1589;-66
2021/11/25 01:31:49;;;;;;;;;;;;;;;16.78;67.58;101784.09;5003538;28;11421;-72
2021/11/25 01:34:15;;;;;;;;;;;;;;;16.76;66.22;101796.69;4972060;28;10830;-65
2021/11/25 01:36:42;;;;;;;;;;;;;;;16.84;67.29;101789.09;5041299;28;11639;-70
2021/11/25 01:39:09;;;;;;;;;;;;;;;16.80;67.65;101796.38;5064978;28;1592;-71
2021/11/25 01:41:38;;;;;;;;;;;;;;;16.82;67.81;101796.34;5068086;28;1441;-70
2021/11/25 01:44:05;;;;;;;;;;;;;;;16.78;68.14;101790.28;5066636;28;1536;-66
2021/11/25 01:46:31;;;;;;;;;;;;;;;16.75;67.95;101781.59;5066516;28;1938;-66
2021/11/25 01:48:58;;;;;;;;;;;;;;;16.74;68.33;101777.22;5071540;28;1597;-71
2021/11/25 01:51:25;;;;;;;;;;;;;;;16.70;68.17;101788.09;5062606;28;1691;-71
2021/11/25 01:53:52;;;;;;;;;;;;;;;16.70;68.43;101776.56;5071611;28;1706;-66
2021/11/25 01:56:18;;;;;;;;;;;;;;;16.72;68.28;101787.16;5067897;28;1592;-66
2021/11/25 01:58:47;;;;;;;;;;;;;;;16.67;68.08;101785.63;5072845;28;1353;-71
2021/11/25 02:01:15;;;;;;;;;;;;;;;16.68;68.30;101781.97;5069035;28;1512;-71
2021/11/25 02:03:42;;;;;;;;;;;;;;;16.69;67.98;101778.38;5065791;28;1546;-67
2021/11/25 02:06:09;;;;;;;;;;;;;;;16.65;68.42;101787.53;5071751;28;1898;-70
2021/11/25 02:08:36;;;;;;;;;;;;;;;16.68;68.76;101778.47;5061180;28;1555;-71
2021/11/25 02:11:02;;;;;;;;;;;;;;;16.65;68.72;101790.22;5062979;28;1535;-71
2021/11/25 02:13:29;;;;;;;;;;;;;;;16.65;68.20;101783.97;5070575;28;1435;-66
2021/11/25 02:15:58;;;;;;;;;;;;;;;16.66;67.80;101785.72;5070821;28;1381;-70
2021/11/25 02:18:25;;;;;;;;;;;;;;;16.66;68.08;101778.56;5063752;28;1528;-70
2021/11/25 02:20:55;;;;;;;;;;;;;;;16.65;68.18;101778.66;5061583;28;1378;-66
2021/11/25 02:23:22;;;;;;;;;;;;;;;16.61;68.45;101770.00;5059100;28;1702;-66
2021/11/25 02:25:49;;;;;;;;;;;;;;;16.62;68.41;101774.34;5058794;28;1914;-71
2021/11/25 02:28:18;;;;;;;;;;;;;;;16.62;68.65;101777.03;5068499;28;1533;-71
2021/11/25 02:30:44;;;;;;;;;;;;;;;16.60;68.01;101786.09;5058809;28;1391;-70
2021/11/25 02:33:11;;;;;;;;;;;;;;;16.59;68.81;101774.56;5067096;28;1443;-71
2021/11/25 02:35:39;;;;;;;;;;;;;;;16.59;67.79;101769.22;5067131;28;1414;-66
2021/11/25 02:38:08;;;;;;;;;;;;;;;16.60;68.25;101773.59;5057573;28;1580;-71
2021/11/25 02:40:37;;;;;;;;;;;;;;;16.60;67.76;101784.28;5069524;28;1447;-71
2021/11/25 02:43:05;;;;;;;;;;;;;;;16.59;67.77;101763.88;5070148;28;1547;-70
2021/11/25 02:45:32;;;;;;;;;;;;;;;16.56;67.86;101766.72;5070155;28;1902;-66
2021/11/25 02:47:59;;;;;;;;;;;;;;;16.58;68.39;101762.16;5062789;28;1566;-70
2021/11/25 02:50:26;;;;;;;;;;;;;;;16.60;68.67;101760.25;5072130;28;1149;-67
2021/11/25 02:52:53;;;;;;;;;;;;;;;16.58;68.53;101772.84;5062008;28;1549;-66
2021/11/25 02:55:21;;;;;;;;;;;;;;;16.57;68.62;101760.41;5064760;28;1418;-70
2021/11/25 02:57:48;;;;;;;;;;;;;;;16.57;68.45;101765.75;5073843;28;1454;-67
2021/11/25 03:00:17;;;;;;;;;;;;;;;16.54;68.90;101765.97;5059653;28;1220;-66
2021/11/25 03:02:44;;;;;;;;;;;;;;;16.56;68.81;101758.72;5059535;28;1596;-71
2021/11/25 03:05:11;;;;;;;;;;;;;;;16.56;68.73;101763.22;5067639;28;1745;-71
2021/11/25 03:07:38;;;;;;;;;;;;;;;16.56;68.55;101763.22;5072916;28;1975;-66
2021/11/25 03:10:05;;;;;;;;;;;;;;;16.51;68.09;101758.13;5064096;28;1687;-66
2021/11/25 03:12:33;;;;;;;;;;;;;;;16.57;67.88;101771.09;5068529;28;1551;-72
2021/11/25 03:14:59;;;;;;;;;;;;;;;16.87;67.11;101767.50;5064795;28;1219;-66
2021/11/25 03:17:26;;;;;;;;;;;;;;;17.06;66.76;101770.72;5074288;28;1492;-70
2021/11/25 03:19:52;;;;;;;;;;;;;;;17.21;66.44;101770.69;5067199;28;1365;-67
2021/11/25 03:22:19;;;;;;;;;;;;;;;17.29;66.07;101760.38;5070358;28;1386;-68
2021/11/25 03:24:46;;;;;;;;;;;;;;;17.42;65.84;101755.06;5068947;28;1845;-67
2021/11/25 03:27:12;;;;;;;;;;;;;;;17.55;65.51;101747.97;5059761;28;1965;-66
2021/11/25 03:29:40;;;;;;;;;;;;;;;17.67;65.11;101744.47;5067404;28;1582;-70
2021/11/25 03:32:07;;;;;;;;;;;;;;;17.71;64.82;101739.78;5067530;28;1360;-71
2021/11/25 03:34:34;;;;;;;;;;;;;;;17.73;64.69;101748.53;5074365;28;1245;-71
2021/11/25 03:37:00;;;;;;;;;;;;;;;17.80;64.55;101747.16;5066615;28;1468;-70
2021/11/25 03:39:27;;;;;;;;;;;;;;;17.85;64.71;101733.53;5068899;28;1504;-68
2021/11/25 03:41:53;;;;;;;;;;;;;;;17.86;64.75;101736.06;5067017;28;1714;-67
2021/11/25 03:44:20;;;;;;;;;;;;;;;17.91;64.73;101737.59;5072364;28;1403;-66
2021/11/25 03:46:48;;;;;;;;;;;;;;;17.85;64.88;101738.88;5065712;28;1979;-66
2021/11/25 03:49:15;;;;;;;;;;;;;;;17.93;65.01;101731.19;5072630;28;1366;-67
2021/11/25 03:51:41;;;;;;;;;;;;;;;17.95;64.74;101728.41;5068377;28;1182;-71
2021/11/25 03:54:08;;;;;;;;;;;;;;;17.97;64.80;101726.47;5068828;28;1548;-71
2021/11/25 03:56:35;;;;;;;;;;;;;;;17.97;64.21;101731.81;5065937;28;1484;-71
2021/11/25 03:59:01;;;;;;;;;;;;;;;18.01;64.44;101727.97;5064764;28;1420;-67
2021/11/25 04:01:28;;;;;;;;;;;;;;;18.04;64.78;101738.44;5067399;28;1461;-67
2021/11/25 04:03:56;;;;;;;;;;;;;;;18.02;64.04;101727.00;5071053;28;1406;-70
2021/11/25 04:06:22;;;;;;;;;;;;;;;18.04;64.50;101720.56;5070429;28;1906;-71
2021/11/25 04:08:49;;;;;;;;;;;;;;;17.99;64.99;101730.75;5066616;28;1353;-67
2021/11/25 04:11:15;;;;;;;;;;;;;;;18.05;64.91;101729.47;5073069;28;1600;-66
2021/11/25 04:13:42;;;;;;;;;;;;;;;18.05;64.74;101724.13;5069041;28;1418;-66
2021/11/25 04:16:08;;;;;;;;;;;;;;;18.08;64.78;101723.91;5061916;28;1325;-66
2021/11/25 04:18:35;;;;;;;;;;;;;;;18.06;64.36;101715.13;5066082;28;1466;-67
2021/11/25 04:21:03;;;;;;;;;;;;;;;18.09;64.25;101715.75;5073509;28;1231;-71
2021/11/25 04:23:29;;;;;;;;;;;;;;;18.09;64.29;101726.47;5066423;28;1384;-71
2021/11/25 04:25:56;;;;;;;;;;;;;;;18.07;64.12;101711.50;5069563;28;1905;-67
2021/11/25 04:28:23;;;;;;;;;;;;;;;18.00;64.52;101712.88;5062952;28;1405;-70
2021/11/25 04:30:54;;;;;;;;;;;;;;;17.96;64.79;101719.41;5069606;28;1298;-67
2021/11/25 04:36:06;;;;;;;;;;;;;;;17.89;64.79;101718.97;5061269;28;1192;-71
2021/11/25 04:38:33;;;;;;;;;;;;;;;17.88;65.21;101727.94;5070805;28;1368;-66
2021/11/25 04:41:01;;;;;;;;;;;;;;;17.85;64.63;101723.66;5064673;28;1659;-66
2021/11/25 04:43:29;;;;;;;;;;;;;;;17.88;64.70;101712.75;5068033;28;1663;-70
2021/11/25 04:45:56;;;;;;;;;;;;;;;17.86;64.82;101706.63;5064602;28;1360;-70
2021/11/25 04:48:23;;;;;;;;;;;;;;;17.91;64.90;101716.19;5061129;28;1901;-70
2021/11/25 04:50:50;;;;;;;;;;;;;;;17.85;64.64;101707.63;5071917;28;1466;-66
2021/11/25 04:53:18;;;;;;;;;;;;;;;17.88;64.66;101696.69;5066514;28;1373;-66
2021/11/25 04:55:45;;;;;;;;;;;;;;;17.91;64.82;101697.47;5062278;28;1197;-67
2021/11/25 04:58:11;;;;;;;;;;;;;;;17.93;64.62;101703.56;5068039;28;1437;-67
2021/11/25 05:00:38;;;;;;;;;;;;;;;17.87;64.82;101696.81;5068246;28;1395;-70
2021/11/25 05:03:04;;;;;;;;;;;;;;;17.88;64.58;101698.50;5066927;28;1549;-70
2021/11/25 05:05:31;;;;;;;;;;;;;;;17.89;65.19;101711.78;5075118;28;1004;-70
2021/11/25 05:07:58;;;;;;;;;;;;;;;17.91;64.60;101716.19;5067209;28;1902;-67
2021/11/25 05:10:26;;;;;;;;;;;;;;;17.91;64.83;101702.81;5061627;28;1204;-71
2021/11/25 05:12:53;;;;;;;;;;;;;;;17.92;64.83;101702.69;5063446;28;1263;-67
2021/11/25 05:15:20;;;;;;;;;;;;;;;17.92;64.64;101701.84;5067136;28;1437;-70
2021/11/25 05:17:47;;;;;;;;;;;;;;;17.92;64.77;101717.91;5066827;28;1498;-70
2021/11/25 05:20:15;;;;;;;;;;;;;;;17.89;64.94;101710.94;5073621;28;1569;-71
2021/11/25 05:22:42;;;;;;;;;;;;;;;17.91;65.17;101713.53;5071901;28;1631;-71
2021/11/25 05:25:10;;;;;;;;;;;;;;;17.89;64.53;101698.41;5062568;28;1320;-71
2021/11/25 05:27:38;;;;;;;;;;;;;;;17.91;64.45;101710.84;5064128;28;1906;-71
2021/11/25 05:30:05;;;;;;;;;;;;;;;17.93;64.41;101712.44;5072913;28;1180;-67
2021/11/25 05:32:32;;;;;;;;;;;;;;;17.90;64.59;101699.25;5071276;28;1227;-67
2021/11/25 05:34:58;;;;;;;;;;;;;;;17.94;64.29;101705.25;5065082;28;1705;-70
2021/11/25 05:37:25;;;;;;;;;;;;;;;17.99;64.26;101709.34;5060280;28;1422;-67
2021/11/25 05:39:52;;;;;;;;;;;;;;;18.05;64.08;101708.06;5032342;28;11098;-66
2021/11/25 05:42:19;;;;;;;;;;;;;;;18.11;63.86;101710.31;5066836;28;1285;-62
2021/11/25 05:44:47;;;;;;;;;;;;;;;18.06;64.27;101704.41;5065191;28;1245;-65
2021/11/25 05:47:13;;;;;;;;;;;;;;;18.12;64.19;101716.50;5063714;28;1968;-67
2021/11/25 05:49:40;;;;;;;;;;;;;;;18.10;63.88;101711.25;5062517;28;1412;-67
2021/11/25 05:52:07;;;;;;;;;;;;;;;17.95;64.02;101705.16;5074066;28;1321;-71
2021/11/25 05:54:33;;;;;;;;;;;;;;;17.98;63.84;101712.13;5068617;28;1422;-62
2021/11/25 05:57:00;;;;;;;;;;;;;;;17.91;64.27;101702.81;5066619;28;1443;-73
2021/11/25 05:59:27;;;;;;;;;;;;;;;17.97;64.40;101705.06;5065261;28;1218;-65
2021/11/25 06:01:55;;;;;;;;;;;;;;;18.06;63.97;101704.41;5045476;28;10890;-69
2021/11/25 06:04:21;;;;;;;;;;;;;;;18.06;63.70;101697.25;5039999;28;11269;-61
2021/11/25 06:06:48;;;;;;;;;;;;;;;18.12;63.63;101695.09;5061879;28;1981;-74
2021/11/25 06:09:14;;;;;;;;;;;;;;;18.14;63.56;101704.72;5069103;28;1758;-72
2021/11/25 06:11:41;;;;;;;;;;;;;;;18.01;63.82;101696.72;5066024;28;1492;-62
2021/11/25 06:14:07;;;;;;;;;;;;;;;17.72;64.63;101698.66;5066966;28;1366;-66
2021/11/25 06:16:34;;;;;;;;;;;;;;;17.59;64.76;101695.13;5063088;28;1469;-61
2021/11/25 06:19:02;;;;;;;;;;;;;;;17.42;64.75;101705.13;5070006;28;1600;-64
2021/11/25 06:21:29;;;;;;;;;;;;;;;17.42;65.20;101698.91;5073557;28;1445;-66
2021/11/25 06:23:55;;;;;;;;;;;;;;;17.62;64.87;101686.88;5065774;28;1385;-65
2021/11/25 06:26:22;;;;;;;;;;;;;;;17.41;65.55;101694.56;5070831;28;1465;-66
2021/11/25 06:28:49;;;;;;;;;;;;;;;17.28;66.12;101702.50;5065104;28;1902;-75
2021/11/25 06:31:15;;;;;;;;;;;;;;;17.25;66.58;101697.38;5068998;28;1445;-66
2021/11/25 06:33:42;;;;;;;;;;;;;;;17.19;66.44;101698.66;5069692;28;1399;-67
2021/11/25 06:36:10;;;;;;;;;;;;;;;17.16;66.50;101692.63;5065675;28;1830;-78
2021/11/25 06:38:37;;;;;;;;;;;;;;;17.28;66.48;101691.81;5067413;28;1425;-66
2021/11/25 06:41:07;;;;;;;;;;;;;;;17.29;66.33;101690.88;5068543;28;1507;-74
2021/11/25 06:43:33;;;;;;;;;;;;;;;17.46;65.50;101684.38;5075308;28;1381;-67
2021/11/25 06:46:00;;;;;;;;;;;;;;;17.72;64.62;101690.63;5065277;28;1608;-66
2021/11/25 06:48:27;;;;;;;;;;;;;;;17.82;64.76;101683.69;5066488;28;1894;-66
2021/11/25 06:50:53;;;;;;;;;;;;;;;17.86;64.93;101685.22;5067539;28;1326;-66
2021/11/25 06:53:22;;;;;;;;;;;;;;;17.94;64.54;101678.50;5064335;28;1381;-67
2021/11/25 06:55:48;;;;;;;;;;;;;;;18.04;64.77;101674.22;5069303;28;1453;-66
2021/11/25 06:58:15;;;;;;;;;;;;;;;18.13;64.36;101681.63;5073121;28;1439;-67
2021/11/25 07:00:41;;;;;;;;;;;;;;;18.11;64.83;101680.88;5069796;28;1343;-66
2021/11/25 07:03:08;;;;;;;;;;;;;;;18.14;64.82;101683.31;5075974;28;1553;-66
2021/11/25 07:05:34;;;;;;;;;;;;;;;18.05;64.73;101667.91;5076073;28;1208;-66
2021/11/25 07:08:03;;;;;;;;;;;;;;;18.04;64.81;101672.38;5068614;28;1910;-81
2021/11/25 07:10:32;;;;;;;;;;;;;;;18.11;65.07;101674.66;5071571;28;1577;-74
2021/11/25 07:13:01;;;;;;;;;;;;;;;18.15;64.78;101666.31;5073303;28;1337;-78
2021/11/25 07:15:28;;;;;;;;;;;;;;;18.24;64.35;101660.31;5077829;28;1182;-77
2021/11/25 07:17:55;;;;;;;;;;;;;;;18.27;64.68;101673.47;5073622;28;1419;-67
2021/11/25 07:20:22;;;;;;;;;;;;;;;18.23;65.06;101657.72;5066422;28;1572;-78
2021/11/25 07:22:49;;;;;;;;;;;;;;;18.23;64.69;101669.28;5076562;28;1461;-81
2021/11/25 07:25:17;;;;;;;;;;;;;;;18.33;64.66;101657.94;5071697;28;1525;-79
2021/11/25 07:27:43;;;;;;;;;;;;;;;18.56;64.07;101654.47;5069478;28;1910;-63
2021/11/25 07:30:13;;;;;;;;;;;;;;;18.60;63.74;101666.66;5067674;28;1472;-67
2021/11/25 07:32:40;;;;;;;;;;;;;;;18.60;63.92;101655.97;5067845;28;1418;-77
2021/11/25 07:35:08;;;;;;;;;;;;;;;18.64;64.18;101654.78;5068168;28;1293;-60
2021/11/25 07:37:34;;;;;;;;;;;;;;;18.66;64.35;101644.78;5066410;28;1581;-60
2021/11/25 07:40:01;;;;;;;;;;;;;;;18.64;64.27;101636.00;5074721;28;1305;-60
2021/11/25 07:42:27;;;;;;;;;;;;;;;18.63;64.32;101642.31;5067064;28;1620;-69
2021/11/25 07:44:55;;;;;;;;;;;;;;;18.72;63.67;101638.13;5075242;28;1248;-78
2021/11/25 07:47:32;;;;;;;;;;;;;;;18.73;63.66;101637.16;5069066;28;1975;-76
2021/11/25 07:49:58;;;;;;;;;;;;;;;18.47;62.27;101641.72;5067934;28;1707;-79
2021/11/25 07:52:25;;;;;;;;;;;;;;;18.32;62.14;101627.59;5075498;28;1314;-63
2021/11/25 07:54:51;;;;;;;;;;;;;;;18.12;60.00;101631.72;5066849;28;1297;-62
2021/11/25 07:57:18;;;;;;;;;;;;;;;18.05;59.86;101627.78;5069173;28;1293;-76
2021/11/25 07:59:45;;;;;;;;;;;;;;;18.01;59.67;101626.28;5072636;28;1249;-65
2021/11/25 08:02:11;;;;;;;;;;;;;;;18.02;59.99;101634.16;5060778;28;1706;-63
2021/11/25 08:04:39;;;;;;;;;;;;;;;18.35;58.22;101626.56;5064410;28;1349;-63
2021/11/25 08:07:06;;;;;;;;;;;;;;;18.66;57.17;101612.66;5070717;28;1914;-61
2021/11/25 08:09:32;;;;;;;;;;;;;;;18.78;57.98;101615.38;5067602;28;1539;-72
2021/11/25 08:11:59;;;;;;;;;;;;;;;18.83;58.60;101611.41;5069449;28;1385;-65
2021/11/25 08:14:26;;;;;;;;;;;;;;;18.84;59.28;101612.25;5069800;28;1228;-71
2021/11/25 08:16:57;;;;;;;;;;;;;;;18.91;59.76;101613.53;5066451;28;1370;-62
2021/11/25 08:19:24;;;;;;;;;;;;;;;18.95;59.06;101596.25;5062926;28;1668;-62
2021/11/25 08:21:52;;;;;;;;;;;;;;;18.96;60.26;101606.00;5063410;28;1391;-61
2021/11/25 08:24:19;;;;;;;;;;;;;;;18.98;59.78;101590.66;5071282;28;1467;-71
2021/11/25 08:26:45;;;;;;;;;;;;;;;19.00;60.16;101601.25;5066019;28;1456;-71
2021/11/25 08:29:12;;;;;;;;;;;;;;;19.07;61.01;101595.31;5065068;28;1906;-65
2021/11/25 08:31:38;;;;;;;;;;;;;;;19.11;60.57;101589.75;5071754;28;1455;-65
2021/11/25 08:34:05;;;;;;;;;;;;;;;19.19;59.93;101595.38;5068736;28;1633;-59
2021/11/25 08:36:32;;;;;;;;;;;;;;;19.18;60.06;101589.16;5062937;28;1345;-80
2021/11/25 08:39:00;;;;;;;;;;;;;;;19.20;60.29;101580.97;5066780;28;1709;-60
2021/11/25 08:41:26;;;;;;;;;;;;;;;19.20;60.63;101584.53;5064135;28;1239;-62
2021/11/25 08:43:53;;;;;;;;;;;;;;;19.16;61.43;101588.44;5061741;28;1458;-70
2021/11/25 08:46:20;;;;;;;;;;;;;;;19.20;60.83;101578.28;5070591;28;1454;-73
2021/11/25 08:48:46;;;;;;;;;;;;;;;19.21;61.33;101571.97;5068654;28;1906;-60
2021/11/25 08:51:13;;;;;;;;;;;;;;;19.26;61.27;101569.81;5065391;28;1231;-72
2021/11/25 08:53:40;;;;;;;;;;;;;;;19.32;61.33;101565.78;5068854;28;1714;-67
2021/11/25 08:56:09;;;;;;;;;;;;;;;19.30;61.56;101557.00;5063678;28;1373;-60
2021/11/25 08:58:36;;;;;;;;;;;;;;;19.28;60.74;101576.75;5065201;28;1318;-63
2021/11/25 09:01:03;;;;;;;;;;;;;;;19.28;61.07;101565.19;5074320;28;1584;-60
2021/11/25 09:03:30;;;;;;;;;;;;;;;19.26;61.64;101548.34;5074371;28;1568;-60
2021/11/25 09:05:57;;;;;;;;;;;;;;;19.28;61.71;101552.63;5058095;28;1340;-74
2021/11/25 09:08:24;;;;;;;;;;;;;;;19.25;61.73;101552.00;5063722;28;1967;-61
2021/11/25 09:10:50;;;;;;;;;;;;;;;19.27;62.38;101558.94;5067878;28;1441;-61
2021/11/25 09:13:18;;;;;;;;;;;;;;;19.20;61.55;101559.53;5064740;28;1564;-61
2021/11/25 09:15:45;;;;;;;;;;;;;;;19.19;60.88;101547.97;5069516;28;1349;-70
2021/11/25 09:18:12;;;;;;;;;;;;;;;19.16;60.82;101539.28;5062961;28;1156;-72
2021/11/25 09:20:40;;;;;;;;;;;;;;;19.19;59.46;101541.75;5068678;28;1730;-60
2021/11/25 09:23:08;;;;;;;;;;;;;;;19.12;60.48;101548.53;5063455;28;1547;-75
2021/11/25 09:25:34;;;;;;;;;;;;;;;19.19;59.54;101528.34;5065171;28;1246;-75
2021/11/25 09:28:02;;;;;;;;;;;;;;;19.21;59.75;101527.25;5066426;28;1972;-75
2021/11/25 09:30:30;;;;;;;;;;;;;;;18.83;60.92;101527.50;5062960;28;1478;-75
2021/11/25 09:32:57;;;;;;;;;;;;;;;18.52;62.12;101519.03;5069054;28;1349;-74
2021/11/25 09:35:23;;;;;;;;;;;;;;;18.27;63.52;101515.50;5074970;28;1008;-64
2021/11/25 09:37:51;;;;;;;;;;;;;;;18.23;63.50;101514.00;5073854;28;1745;-74
2021/11/25 09:40:23;;;;;;;;;;;;;;;18.17;63.54;101509.09;5074185;28;1615;-74
2021/11/25 09:42:50;;;;;;;;;;;;;;;18.12;63.81;101505.06;5073354;28;1626;-62
2021/11/25 09:45:21;;;;;;;;;;;;;;;18.08;63.74;101509.75;5073870;28;1578;-67
2021/11/25 09:47:49;;;;;;;;;;;;;;;18.04;64.02;101513.63;5072452;28;1910;-73
2021/11/25 09:50:16;;;;;;;;;;;;;;;18.07;64.22;101508.06;5074313;28;1071;-63
2021/11/25 09:52:42;;;;;;;;;;;;;;;18.09;64.03;101509.66;5071947;28;1331;-74
2021/11/25 09:55:09;;;;;;;;;;;;;;;18.03;64.23;101493.22;5073738;28;1375;-74
2021/11/25 09:57:36;;;;;;;;;;;;;;;17.97;64.07;101482.94;5074201;28;1595;-73
2021/11/25 10:00:03;;;;;;;;;;;;;;;17.88;64.36;101490.66;5077635;28;978;-63
2021/11/25 10:02:29;;;;;;;;;;;;;;;17.81;64.76;101469.78;5079910;28;1583;-73
2021/11/25 10:04:57;;;;;;;;;;;;;;;17.84;64.75;101488.31;5079921;28;1516;-72
2021/11/25 10:07:31;;;;;;;;;;;;;;;17.83;64.63;101476.75;5080379;28;1781;-63
2021/11/25 10:09:57;;;;;;;;;;;;;;;17.79;64.78;101469.91;5080470;28;1967;-73
2021/11/25 10:12:31;;;;;;;;;;;;;;;17.78;64.92;101460.16;5081091;28;1055;-72
2021/11/25 10:14:59;;;;;;;;;;;;;;;17.77;65.10;101463.81;5081000;28;1016;-63
2021/11/25 10:17:45;;;;;;;;;;;;;;;17.71;65.13;101448.19;5079961;28;1714;-63
2021/11/25 10:20:15;;;;;;;;;;;;;;;17.70;65.16;101447.31;5075968;28;1809;-72
2021/11/25 10:23:07;;;;;;;;;;;;;;;17.74;64.98;101450.63;5080079;28;1328;-62
2021/11/25 10:25:40;;;;;;;;;;;;;;;17.70;65.27;101446.47;5080497;28;1515;-73
2021/11/25 10:28:07;;;;;;;;;;;;;;;17.68;65.45;101443.06;5066328;28;1906;-72
2021/11/25 10:30:36;;;;;;;;;;;;;;;17.62;65.30;101433.66;5075309;28;1465;-63
2021/11/25 10:33:03;;;;;;;;;;;;;;;17.64;65.23;101430.88;5066727;28;1716;-73
2021/11/25 10:35:40;;;;;;;;;;;;;;;17.60;65.17;101419.53;5068833;28;1271;-72
2021/11/25 10:38:22;;;;;;;;;;;;;;;17.60;64.89;101413.34;5079884;28;1378;-72
2021/11/25 10:40:49;;;;;;;;;;;;;;;17.61;65.24;101415.06;5069944;28;1396;-62
2021/11/25 10:43:20;;;;;;;;;;;;;;;17.59;65.10;101411.63;5076999;28;1637;-72
2021/11/25 10:45:48;;;;;;;;;;;;;;;17.56;65.43;101399.31;5073059;28;1337;-71
2021/11/25 10:48:26;;;;;;;;;;;;;;;17.56;64.48;101401.16;5066502;28;1902;-66
2021/11/25 10:50:54;;;;;;;;;;;;;;;17.59;63.56;101384.91;5068774;28;1294;-74
2021/11/25 10:53:20;;;;;;;;;;;;;;;17.62;63.50;101393.53;5070355;28;1729;-62
2021/11/25 10:55:46;;;;;;;;;;;;;;;17.67;63.39;101385.19;5080179;28;1443;-62
2021/11/25 10:58:13;;;;;;;;;;;;;;;17.67;63.50;101366.47;5075604;28;1577;-60
2021/11/25 11:00:42;;;;;;;;;;;;;;;17.65;63.91;101374.59;5071505;28;1381;-59
2021/11/25 11:03:10;;;;;;;;;;;;;;;17.63;64.00;101370.34;5079470;28;1520;-69
2021/11/25 11:05:47;;;;;;;;;;;;;;;17.64;64.07;101372.03;5071000;28;1653;-60
2021/11/25 11:08:16;;;;;;;;;;;;;;;17.64;64.18;101372.88;5079429;28;1976;-67
2021/11/25 11:10:50;;;;;;;;;;;;;;;17.68;64.41;101370.84;5079285;28;1587;-65
2021/11/25 11:13:26;;;;;;;;;;;;;;;17.61;64.54;101356.22;5066079;28;1554;-71
2021/11/25 11:15:58;;;;;;;;;;;;;;;17.65;64.55;101365.72;5076377;28;1531;-71
2021/11/25 11:18:44;;;;;;;;;;;;;;;17.64;64.60;101361.31;5075112;28;1579;-71
2021/11/25 11:21:26;;;;;;;;;;;;;;;17.67;64.52;101355.75;5066135;28;1500;-60
2021/11/25 11:23:54;;;;;;;;;;;;;;;17.61;64.69;101343.69;5071387;28;1777;-60
2021/11/25 11:26:21;;;;;;;;;;;;;;;17.60;64.85;101333.94;5071116;28;1708;-60
2021/11/25 11:28:47;;;;;;;;;;;;;;;17.59;65.01;101334.94;5071553;28;1902;-67
2021/11/25 11:31:14;;;;;;;;;;;;;;;17.61;64.95;101329.47;5076014;28;1567;-63
2021/11/25 11:33:41;;;;;;;;;;;;;;;17.59;65.25;101337.59;5076032;28;1654;-59
2021/11/25 11:36:08;;;;;;;;;;;;;;;17.57;65.32;101317.28;5077093;28;1063;-62
2021/11/25 11:38:35;;;;;;;;;;;;;;;17.58;65.08;101329.69;5075328;28;1663;-75
2021/11/25 11:41:04;;;;;;;;;;;;;;;17.53;64.80;101327.34;5070808;28;1378;-73
2021/11/25 11:43:32;;;;;;;;;;;;;;;17.37;63.52;101319.59;5069777;28;1408;-74
2021/11/25 11:45:59;;;;;;;;;;;;;;;17.34;61.04;101318.97;5074093;28;1489;-62
2021/11/25 11:48:26;;;;;;;;;;;;;;;17.43;60.81;101320.97;5066727;28;1898;-71
2021/11/25 11:50:54;;;;;;;;;;;;;;;17.44;60.65;101311.97;5077197;28;1007;-74
2021/11/25 11:53:21;;;;;;;;;;;;;;;17.50;60.46;101300.81;5071911;28;1432;-66
2021/11/25 11:55:50;;;;;;;;;;;;;;;17.50;60.79;101307.03;5071055;28;1445;-60
2021/11/25 11:58:26;;;;;;;;;;;;;;;17.51;61.05;101307.91;5069921;28;1403;-67
2021/11/25 12:00:54;;;;;;;;;;;;;;;17.50;61.51;101298.16;5075487;28;1404;-60
2021/11/25 12:03:41;;;;;;;;;;;;;;;17.53;61.90;101299.75;5075536;28;1587;-60
2021/11/25 12:06:08;;;;;;;;;;;;;;;17.50;61.83;101282.97;5071602;28;1033;-60
2021/11/25 12:08:47;;;;;;;;;;;;;;;17.53;62.44;101287.25;5071031;28;1973;-65
2021/11/25 12:11:16;;;;;;;;;;;;;;;17.53;62.33;101287.25;5072640;28;1381;-66
2021/11/25 12:14:01;;;;;;;;;;;;;;;17.50;62.66;101277.59;5070450;28;1656;-63
2021/11/25 12:16:29;;;;;;;;;;;;;;;17.56;62.84;101283.47;5064786;28;1601;-67
2021/11/25 12:18:57;;;;;;;;;;;;;;;17.53;63.07;101279.22;5065311;28;1436;-65
2021/11/25 12:21:34;;;;;;;;;;;;;;;17.54;63.06;101275.56;5063976;28;1803;-58
2021/11/25 12:24:15;;;;;;;;;;;;;;;17.54;62.98;101269.38;5068644;28;1754;-72
2021/11/25 12:26:57;;;;;;;;;;;;;;;17.55;63.20;101261.25;5062977;28;1480;-69
2021/11/25 12:29:35;;;;;;;;;;;;;;;17.58;63.18;101257.47;5057680;28;1906;-70
2021/11/25 12:32:26;;;;;;;;;;;;;;;17.60;63.35;101258.22;5066708;28;1351;-61
2021/11/25 12:34:53;;;;;;;;;;;;;;;17.58;63.39;101260.16;5071495;28;1303;-62
2021/11/25 12:37:55;;;;;;;;;;;;;;;17.58;63.40;101242.28;5067728;28;1298;-73
2021/11/25 12:40:40;;;;;;;;;;;;;;;17.55;63.50;101244.31;5022834;28;1429;-73
2021/11/25 12:43:07;;;;;;;;;;;;;;;17.58;63.75;101249.47;5030150;28;1523;-73
2021/11/25 12:45:36;;;;;;;;;;;;;;;17.52;63.71;101255.25;5051052;28;1524;-71
2021/11/25 12:48:12;;;;;;;;;;;;;;;17.57;63.81;101253.13;5059293;28;1444;-62
2021/11/25 12:50:40;;;;;;;;;;;;;;;17.62;63.39;101261.63;5069453;28;1972;-62
2021/11/25 12:53:07;;;;;;;;;;;;;;;17.66;63.62;101258.59;5071667;28;1741;-61